Cerro Gordo, North Carolina
Current Conditions -  °F | °C
As of 3:35 PM on Monday 22 Dec 2014 (Local Time) from KCPC Reporting Station
Light Rain Light Rain  
Wind Chill: 40°   Ceiling: 200
Heat Index: 44°   Visibility: 4mi
Dew Point: 43°   Wind: 6mph
Humidity: 97%   Direction: 20°NNE
Pressure: 30"   Gusts: NA
Location:  34.32°N, 78.93°W
Report Text: KCPC 222035Z AUTO 02005KT 4SM -RA OVC002 07/06 A3000 RMK AO2 P0001 T00650060
Loading
Personal Weather Stations






























Interactive Weather Map New forecast layout! Learn more

10-Day Weather Forecast

Advertisements
Track Severe Weather on mobile